sensor_id;sensor_type;location;lat;lon;timestamp;pressure;altitude;pressure_sealevel;temperature;humidity
69455;BME280;56660;51.986;5.930;2022-08-01T00:01:14;101604.94;;;21.58;69.98
69455;BME280;56660;51.986;5.930;2022-08-01T00:03:40;101607.66;;;21.58;69.61
69455;BME280;56660;51.986;5.930;2022-08-01T00:06:13;101607.22;;;21.55;69.56
69455;BME280;56660;51.986;5.930;2022-08-01T00:08:40;101612.88;;;21.53;69.62
69455;BME280;56660;51.986;5.930;2022-08-01T00:11:06;101605.31;;;21.48;69.66
69455;BME280;56660;51.986;5.930;2022-08-01T00:13:31;101610.75;;;21.48;69.80
69455;BME280;56660;51.986;5.930;2022-08-01T00:16:09;101610.75;;;21.48;70.03
69455;BME280;56660;51.986;5.930;2022-08-01T00:18:42;101614.09;;;21.50;69.92
69455;BME280;56660;51.986;5.930;2022-08-01T00:21:09;101606.13;;;21.49;69.81
69455;BME280;56660;51.986;5.930;2022-08-01T00:23:38;101614.09;;;21.50;69.92
69455;BME280;56660;51.986;5.930;2022-08-01T00:26:04;101612.03;;;21.53;69.70
69455;BME280;56660;51.986;5.930;2022-08-01T00:28:44;101600.69;;;21.49;69.45
69455;BME280;56660;51.986;5.930;2022-08-01T00:31:16;101611.59;;;21.49;69.59
69455;BME280;56660;51.986;5.930;2022-08-01T00:33:43;101615.78;;;21.52;69.68
69455;BME280;56660;51.986;5.930;2022-08-01T00:36:14;101617.47;;;21.53;69.53
69455;BME280;56660;51.986;5.930;2022-08-01T00:38:43;101616.81;;;21.50;69.49
69455;BME280;56660;51.986;5.930;2022-08-01T00:41:13;101612.63;;;21.48;69.65
69455;BME280;56660;51.986;5.930;2022-08-01T00:43:54;101618.25;;;21.46;69.32
69455;BME280;56660;51.986;5.930;2022-08-01T00:46:43;101614.91;;;21.44;69.50
69455;BME280;56660;51.986;5.930;2022-08-01T00:49:11;101612.81;;;21.46;69.59
69455;BME280;56660;51.986;5.930;2022-08-01T00:51:40;101605.44;;;21.40;69.57
69455;BME280;56660;51.986;5.930;2022-08-01T00:54:06;101605.00;;;21.37;69.83
69455;BME280;56660;51.986;5.930;2022-08-01T00:56:40;101609.34;;;21.31;69.87
69455;BME280;56660;51.986;5.930;2022-08-01T00:59:07;101614.78;;;21.31;69.74
69455;BME280;56660;51.986;5.930;2022-08-01T01:01:34;101602.22;;;21.30;69.83
69455;BME280;56660;51.986;5.930;2022-08-01T01:04:08;101612.06;;;21.31;69.79
69455;BME280;56660;51.986;5.930;2022-08-01T01:06:57;101611.03;;;21.32;69.75
69455;BME280;56660;51.986;5.930;2022-08-01T01:09:37;101612.31;;;21.36;69.85
69455;BME280;56660;51.986;5.930;2022-08-01T01:12:17;101602.88;;;21.32;69.68
69455;BME280;56660;51.986;5.930;2022-08-01T01:15:02;101612.28;;;21.30;69.72
69455;BME280;56660;51.986;5.930;2022-08-01T01:17:38;101612.28;;;21.30;69.79
69455;BME280;56660;51.986;5.930;2022-08-01T01:20:39;101617.91;;;21.28;70.20
69455;BME280;56660;51.986;5.930;2022-08-01T01:23:24;101624.59;;;21.26;69.91
69455;BME280;56660;51.986;5.930;2022-08-01T01:26:18;101621.66;;;21.27;70.03
69455;BME280;56660;51.986;5.930;2022-08-01T01:29:00;101620.63;;;21.28;69.67
69455;BME280;56660;51.986;5.930;2022-08-01T01:31:42;101628.59;;;21.30;69.86
69455;BME280;56660;51.986;5.930;2022-08-01T01:34:32;101624.00;;;21.30;69.63
69455;BME280;56660;51.986;5.930;2022-08-01T01:37:14;101627.56;;;21.31;69.63
69455;BME280;56660;51.986;5.930;2022-08-01T01:39:51;101630.28;;;21.31;69.67
69455;BME280;56660;51.986;5.930;2022-08-01T01:42:24;101625.03;;;21.29;69.56
69455;BME280;56660;51.986;5.930;2022-08-01T01:45:13;101629.63;;;21.29;69.78
69455;BME280;56660;51.986;5.930;2022-08-01T01:48:01;101626.91;;;21.29;69.78
69455;BME280;56660;51.986;5.930;2022-08-01T01:50:30;101617.91;;;21.28;69.54
69455;BME280;56660;51.986;5.930;2022-08-01T01:52:59;101619.59;;;21.29;69.65
69455;BME280;56660;51.986;5.930;2022-08-01T01:55:52;101623.34;;;21.28;69.92
69455;BME280;56660;51.986;5.930;2022-08-01T01:58:30;101622.69;;;21.26;69.79
69455;BME280;56660;51.986;5.930;2022-08-01T02:01:21;101627.09;;;21.27;69.70
69455;BME280;56660;51.986;5.930;2022-08-01T02:03:51;101618.09;;;21.27;69.70
69455;BME280;56660;51.986;5.930;2022-08-01T02:06:20;101628.97;;;21.27;69.85
69455;BME280;56660;51.986;5.930;2022-08-01T02:08:48;101631.69;;;21.27;69.96
69455;BME280;56660;51.986;5.930;2022-08-01T02:11:18;101620.81;;;21.27;69.85
69455;BME280;56660;51.986;5.930;2022-08-01T02:13:51;101626.47;;;21.25;69.95
69455;BME280;56660;51.986;5.930;2022-08-01T02:16:24;101624.78;;;21.24;69.92
69455;BME280;56660;51.986;5.930;2022-08-01T02:18:56;101630.22;;;21.24;70.04
69455;BME280;56660;51.986;5.930;2022-08-01T02:21:47;101630.22;;;21.24;70.07
69455;BME280;56660;51.986;5.930;2022-08-01T02:24:36;101630.88;;;21.26;70.08
69455;BME280;56660;51.986;5.930;2022-08-01T02:27:10;101623.94;;;21.24;70.08
69455;BME280;56660;51.986;5.930;2022-08-01T02:29:42;101630.78;;;21.19;70.34
69455;BME280;56660;51.986;5.930;2022-08-01T02:32:26;101621.13;;;21.17;70.43
69455;BME280;56660;51.986;5.930;2022-08-01T02:35:03;101630.31;;;21.16;70.33
69455;BME280;56660;51.986;5.930;2022-08-01T02:37:41;101624.03;;;21.15;70.61
69455;BME280;56660;51.986;5.930;2022-08-01T02:40:25;101628.19;;;21.11;70.71
69455;BME280;56660;51.986;5.930;2022-08-01T02:43:18;101619.59;;;21.08;71.06
69455;BME280;56660;51.986;5.930;2022-08-01T02:45:59;101618.75;;;21.07;71.37
69455;BME280;56660;51.986;5.930;2022-08-01T02:48:45;101631.03;;;21.03;71.54
69455;BME280;56660;51.986;5.930;2022-08-01T02:51:14;101627.03;;;20.99;71.62
69455;BME280;56660;51.986;5.930;2022-08-01T02:53:47;101631.63;;;20.99;71.47
69455;BME280;56660;51.986;5.930;2022-08-01T02:56:18;101631.63;;;20.99;71.64
69455;BME280;56660;51.986;5.930;2022-08-01T02:58:48;101628.25;;;20.97;71.80
69455;BME280;56660;51.986;5.930;2022-08-01T03:01:17;101624.91;;;20.95;71.97
69455;BME280;56660;51.986;5.930;2022-08-01T03:03:48;101633.06;;;20.95;72.09
69455;BME280;56660;51.986;5.930;2022-08-01T03:06:18;101630.34;;;20.95;72.20
69455;BME280;56660;51.986;5.930;2022-08-01T03:08:46;101629.50;;;20.94;72.00
69455;BME280;56660;51.986;5.930;2022-08-01T03:11:14;101624.91;;;20.95;72.06
69455;BME280;56660;51.986;5.930;2022-08-01T03:13:47;101624.06;;;20.94;72.15
69455;BME280;56660;51.986;5.930;2022-08-01T03:16:21;101625.09;;;20.93;72.05
69455;BME280;56660;51.986;5.930;2022-08-01T03:18:51;101628.84;;;20.92;72.21
69455;BME280;56660;51.986;5.930;2022-08-01T03:21:21;101630.06;;;20.90;72.28
69455;BME280;56660;51.986;5.930;2022-08-01T03:23:50;101636.94;;;20.85;72.40
69455;BME280;56660;51.986;5.930;2022-08-01T03:26:18;101634.09;;;20.79;72.42
69455;BME280;56660;51.986;5.930;2022-08-01T03:28:49;101639.75;;;20.77;72.42
69455;BME280;56660;51.986;5.930;2022-08-01T03:31:21;101640.13;;;20.74;72.38
69455;BME280;56660;51.986;5.930;2022-08-01T03:33:53;101631.72;;;20.69;72.24
69455;BME280;56660;51.986;5.930;2022-08-01T03:36:23;101623.94;;;20.66;72.46
69455;BME280;56660;51.986;5.930;2022-08-01T03:38:52;101631.25;;;20.66;72.43
69455;BME280;56660;51.986;5.930;2022-08-01T03:41:24;101629.75;;;20.63;72.35
69455;BME280;56660;51.986;5.930;2022-08-01T03:43:56;101631.63;;;20.63;72.41
69455;BME280;56660;51.986;5.930;2022-08-01T03:46:32;101625.81;;;20.66;72.45
69455;BME280;56660;51.986;5.930;2022-08-01T03:49:23;101630.41;;;20.65;72.49
69455;BME280;56660;51.986;5.930;2022-08-01T03:51:55;101624.50;;;20.62;72.92
69455;BME280;56660;51.986;5.930;2022-08-01T03:54:26;101631.19;;;20.59;72.79
69455;BME280;56660;51.986;5.930;2022-08-01T03:57:01;101630.53;;;20.57;72.73
69455;BME280;56660;51.986;5.930;2022-08-01T03:59:30;101637.00;;;20.56;72.81
69455;BME280;56660;51.986;5.930;2022-08-01T04:01:58;101637.00;;;20.56;72.58
69455;BME280;56660;51.986;5.930;2022-08-01T04:04:26;101635.31;;;20.55;72.83
69455;BME280;56660;51.986;5.930;2022-08-01T04:06:53;101638.69;;;20.57;72.97
69455;BME280;56660;51.986;5.930;2022-08-01T04:09:20;101650.19;;;20.59;73.07
69455;BME280;56660;51.986;5.930;2022-08-01T04:11:47;101642.88;;;20.60;72.71
69455;BME280;56660;51.986;5.930;2022-08-01T04:14:14;101640.34;;;20.58;72.65
69455;BME280;56660;51.986;5.930;2022-08-01T04:16:41;101641.78;;;20.54;72.91
69455;BME280;56660;51.986;5.930;2022-08-01T04:19:09;101643.84;;;20.52;72.87
69455;BME280;56660;51.986;5.930;2022-08-01T04:21:42;101641.69;;;20.47;72.78
69455;BME280;56660;51.986;5.930;2022-08-01T04:24:17;101646.28;;;20.47;73.14
69455;BME280;56660;51.986;5.930;2022-08-01T04:26:46;101649.84;;;20.47;73.08
69455;BME280;56660;51.986;5.930;2022-08-01T04:29:17;101648.53;;;20.43;73.06
69455;BME280;56660;51.986;5.930;2022-08-01T04:31:46;101647.06;;;20.41;73.05
69455;BME280;56660;51.986;5.930;2022-08-01T04:34:21;101653.50;;;20.40;73.18
69455;BME280;56660;51.986;5.930;2022-08-01T04:36:54;101657.06;;;20.40;73.20
69455;BME280;56660;51.986;5.930;2022-08-01T04:39:27;101656.88;;;20.42;73.09
69455;BME280;56660;51.986;5.930;2022-08-01T04:41:59;101661.09;;;20.44;73.35
69455;BME280;56660;51.986;5.930;2022-08-01T04:44:27;101660.91;;;20.46;73.23
69455;BME280;56660;51.986;5.930;2022-08-01T04:46:54;101662.41;;;20.48;73.57
69455;BME280;56660;51.986;5.930;2022-08-01T04:49:26;101667.63;;;20.50;73.45
69455;BME280;56660;51.986;5.930;2022-08-01T04:51:55;101667.25;;;20.53;73.38
69455;BME280;56660;51.986;5.930;2022-08-01T04:54:22;101675.03;;;20.56;73.63
69455;BME280;56660;51.986;5.930;2022-08-01T04:56:49;101678.00;;;20.61;73.52
69455;BME280;56660;51.986;5.930;2022-08-01T04:59:46;101679.31;;;20.65;73.51
69455;BME280;56660;51.986;5.930;2022-08-01T05:02:19;101679.97;;;20.67;73.58
69455;BME280;56660;51.986;5.930;2022-08-01T05:04:46;101682.97;;;20.72;73.36
69455;BME280;56660;51.986;5.930;2022-08-01T05:07:15;101677.53;;;20.72;73.31
69455;BME280;56660;51.986;5.930;2022-08-01T05:09:42;101679.84;;;20.75;73.54
69455;BME280;56660;51.986;5.930;2022-08-01T05:12:09;101682.38;;;20.77;73.29
69455;BME280;56660;51.986;5.930;2022-08-01T05:14:36;101687.16;;;20.75;73.40
69455;BME280;56660;51.986;5.930;2022-08-01T05:17:04;101688.19;;;20.74;73.44
69455;BME280;56660;51.986;5.930;2022-08-01T05:19:32;101685.09;;;20.77;73.52
69455;BME280;56660;51.986;5.930;2022-08-01T05:24:55;101682.00;;;20.80;73.45
69455;BME280;56660;51.986;5.930;2022-08-01T05:27:31;101687.09;;;20.83;73.42
69455;BME280;56660;51.986;5.930;2022-08-01T05:29:57;101682.50;;;20.83;73.26
69455;BME280;56660;51.986;5.930;2022-08-01T05:32:23;101695.44;;;20.81;73.36
69455;BME280;56660;51.986;5.930;2022-08-01T05:37:25;101694.41;;;20.82;73.35
69455;BME280;56660;51.986;5.930;2022-08-01T05:39:52;101688.31;;;20.80;73.56
69455;BME280;56660;51.986;5.930;2022-08-01T05:42:18;101705.28;;;20.82;73.49
69455;BME280;56660;51.986;5.930;2022-08-01T05:44:50;101696.94;;;20.84;73.52
69455;BME280;56660;51.986;5.930;2022-08-01T05:47:16;101695.13;;;20.91;73.47
69455;BME280;56660;51.986;5.930;2022-08-01T05:49:42;101708.72;;;20.91;73.45
69455;BME280;56660;51.986;5.930;2022-08-01T05:52:10;101701.41;;;20.92;73.37
69455;BME280;56660;51.986;5.930;2022-08-01T05:54:36;101696.63;;;20.94;73.53
69455;BME280;56660;51.986;5.930;2022-08-01T05:57:03;101701.00;;;20.95;73.66
69455;BME280;56660;51.986;5.930;2022-08-01T05:59:29;101700.19;;;20.94;73.21
69455;BME280;56660;51.986;5.930;2022-08-01T06:01:55;101703.34;;;20.98;73.62
69455;BME280;56660;51.986;5.930;2022-08-01T06:04:22;101703.81;;;21.01;73.74
69455;BME280;56660;51.986;5.930;2022-08-01T06:06:48;101702.97;;;21.01;73.08
69455;BME280;56660;51.986;5.930;2022-08-01T06:09:14;101713.47;;;21.04;73.33
69455;BME280;56660;51.986;5.930;2022-08-01T06:11:39;101717.66;;;21.06;73.18
69455;BME280;56660;51.986;5.930;2022-08-01T06:14:06;101711.66;;;21.11;73.14
69455;BME280;56660;51.986;5.930;2022-08-01T06:16:32;101709.38;;;21.14;72.88
69455;BME280;56660;51.986;5.930;2022-08-01T06:18:58;101717.16;;;21.17;72.74
69455;BME280;56660;51.986;5.930;2022-08-01T06:21:23;101723.63;;;21.16;72.54
69455;BME280;56660;51.986;5.930;2022-08-01T06:23:49;101723.81;;;21.15;72.79
69455;BME280;56660;51.986;5.930;2022-08-01T06:26:18;101730.31;;;21.14;72.60
69455;BME280;56660;51.986;5.930;2022-08-01T06:28:43;101722.97;;;21.14;72.58
69455;BME280;56660;51.986;5.930;2022-08-01T06:31:10;101726.94;;;21.12;72.57
69455;BME280;56660;51.986;5.930;2022-08-01T06:33:36;101730.50;;;21.12;72.49
69455;BME280;56660;51.986;5.930;2022-08-01T06:36:02;101732.38;;;21.12;72.27
69455;BME280;56660;51.986;5.930;2022-08-01T06:38:28;101727.59;;;21.14;72.31
69455;BME280;56660;51.986;5.930;2022-08-01T06:40:53;101727.59;;;21.14;72.20
69455;BME280;56660;51.986;5.930;2022-08-01T06:43:19;101731.34;;;21.13;72.25
69455;BME280;56660;51.986;5.930;2022-08-01T06:45:44;101738.91;;;21.17;72.37
69455;BME280;56660;51.986;5.930;2022-08-01T06:48:11;101742.78;;;21.23;72.27
69455;BME280;56660;51.986;5.930;2022-08-01T06:50:40;101735.06;;;21.27;72.05
69455;BME280;56660;51.986;5.930;2022-08-01T06:53:06;101733.66;;;21.31;71.82
69455;BME280;56660;51.986;5.930;2022-08-01T06:55:31;101741.22;;;21.35;71.76
69455;BME280;56660;51.986;5.930;2022-08-01T06:57:57;101746.94;;;21.40;71.91
69455;BME280;56660;51.986;5.930;2022-08-01T07:00:24;101736.69;;;21.42;71.76
69455;BME280;56660;51.986;5.930;2022-08-01T07:02:51;101741.09;;;21.43;71.59
69455;BME280;56660;51.986;5.930;2022-08-01T07:05:19;101743.44;;;21.46;71.58
69455;BME280;56660;51.986;5.930;2022-08-01T07:07:45;101748.47;;;21.49;71.57
69455;BME280;56660;51.986;5.930;2022-08-01T07:10:10;101740.56;;;21.55;71.62
69455;BME280;56660;51.986;5.930;2022-08-01T07:12:36;101743.09;;;21.56;71.68
69455;BME280;56660;51.986;5.930;2022-08-01T07:15:03;101748.34;;;21.58;71.54
69455;BME280;56660;51.986;5.930;2022-08-01T07:17:29;101747.97;;;21.61;71.48
69455;BME280;56660;51.986;5.930;2022-08-01T07:19:55;101746.31;;;21.66;71.21
69455;BME280;56660;51.986;5.930;2022-08-01T07:22:22;101747.63;;;21.70;71.22
69455;BME280;56660;51.986;5.930;2022-08-01T07:24:47;101742.63;;;21.74;70.66
69455;BME280;56660;51.986;5.930;2022-08-01T07:27:13;101757.91;;;21.75;70.25
69455;BME280;56660;51.986;5.930;2022-08-01T07:29:38;101764.00;;;21.77;70.57
69455;BME280;56660;51.986;5.930;2022-08-01T07:32:05;101769.00;;;21.73;70.73
69455;BME280;56660;51.986;5.930;2022-08-01T07:34:30;101767.13;;;21.74;70.65
69455;BME280;56660;51.986;5.930;2022-08-01T07:36:56;101769.47;;;21.77;70.72
69455;BME280;56660;51.986;5.930;2022-08-01T07:39:23;101770.09;;;21.79;70.52
69455;BME280;56660;51.986;5.930;2022-08-01T07:41:48;101770.28;;;21.77;70.26
69455;BME280;56660;51.986;5.930;2022-08-01T07:44:14;101772.38;;;21.75;70.05
69455;BME280;56660;51.986;5.930;2022-08-01T07:46:39;101775.09;;;21.75;70.28
69455;BME280;56660;51.986;5.930;2022-08-01T07:49:05;101775.94;;;21.76;70.24
69455;BME280;56660;51.986;5.930;2022-08-01T07:51:30;101777.63;;;21.77;70.34
69455;BME280;56660;51.986;5.930;2022-08-01T07:56:33;101773.47;;;21.81;70.42
69455;BME280;56660;51.986;5.930;2022-08-01T07:59:01;101773.41;;;21.74;70.44
69455;BME280;56660;51.986;5.930;2022-08-01T08:01:26;101792.13;;;21.84;70.40
69455;BME280;56660;51.986;5.930;2022-08-01T08:03:52;101802.44;;;21.89;70.99
69455;BME280;56660;51.986;5.930;2022-08-01T08:06:17;101789.28;;;21.92;70.50
69455;BME280;56660;51.986;5.930;2022-08-01T08:08:43;101788.88;;;21.95;70.51
69455;BME280;56660;51.986;5.930;2022-08-01T08:11:08;101790.56;;;21.96;70.07
69455;BME280;56660;51.986;5.930;2022-08-01T08:13:35;101795.31;;;21.88;70.02
69455;BME280;56660;51.986;5.930;2022-08-01T08:16:01;101805.34;;;21.87;70.19
69455;BME280;56660;51.986;5.930;2022-08-01T08:18:26;101795.31;;;21.88;70.22
69455;BME280;56660;51.986;5.930;2022-08-01T08:20:54;101806.91;;;21.96;70.30
69455;BME280;56660;51.986;5.930;2022-08-01T08:23:19;101812.44;;;22.03;69.95
69455;BME280;56660;51.986;5.930;2022-08-01T08:25:45;101805.09;;;22.03;69.73
69455;BME280;56660;51.986;5.930;2022-08-01T08:28:10;101805.09;;;22.03;70.28
69455;BME280;56660;51.986;5.930;2022-08-01T08:30:37;101801.34;;;22.04;69.74
69455;BME280;56660;51.986;5.930;2022-08-01T08:33:03;101802.63;;;22.08;70.09
69455;BME280;56660;51.986;5.930;2022-08-01T08:35:29;101808.34;;;22.13;69.62
69455;BME280;56660;51.986;5.930;2022-08-01T08:37:54;101808.56;;;22.19;69.25
69455;BME280;56660;51.986;5.930;2022-08-01T08:40:21;101802.72;;;22.22;69.42
69455;BME280;56660;51.986;5.930;2022-08-01T08:42:54;101806.09;;;22.24;69.32
69455;BME280;56660;51.986;5.930;2022-08-01T08:45:24;101811.19;;;22.33;69.73
69455;BME280;56660;51.986;5.930;2022-08-01T08:47:53;101814.56;;;22.35;69.43
69455;BME280;56660;51.986;5.930;2022-08-01T08:50:20;101815.84;;;22.39;69.29
69455;BME280;56660;51.986;5.930;2022-08-01T08:52:46;101817.78;;;22.45;69.11
69455;BME280;56660;51.986;5.930;2022-08-01T08:55:12;101816.34;;;22.50;69.00
69455;BME280;56660;51.986;5.930;2022-08-01T08:57:42;101820.94;;;22.49;68.75
69455;BME280;56660;51.986;5.930;2022-08-01T09:00:10;101818.41;;;22.48;68.43
69455;BME280;56660;51.986;5.930;2022-08-01T09:02:36;101829.94;;;22.43;68.61
69455;BME280;56660;51.986;5.930;2022-08-01T09:05:07;101825.88;;;22.32;68.61
69455;BME280;56660;51.986;5.930;2022-08-01T09:07:33;101831.41;;;22.18;68.57
69455;BME280;56660;51.986;5.930;2022-08-01T09:10:02;101836.16;;;22.09;68.78
69455;BME280;56660;51.986;5.930;2022-08-01T09:12:31;101842.31;;;21.96;68.78
69455;BME280;56660;51.986;5.930;2022-08-01T09:14:57;101838.41;;;21.84;68.82
69455;BME280;56660;51.986;5.930;2022-08-01T09:17:23;101841.47;;;21.74;69.07
69455;BME280;56660;51.986;5.930;2022-08-01T09:19:50;101842.81;;;21.64;69.21
69455;BME280;56660;51.986;5.930;2022-08-01T09:22:20;101850.53;;;21.60;69.79
69455;BME280;56660;51.986;5.930;2022-08-01T09:25:06;101845.66;;;21.56;70.08
69455;BME280;56660;51.986;5.930;2022-08-01T09:27:35;101853.84;;;21.56;70.19
69455;BME280;56660;51.986;5.930;2022-08-01T09:30:10;101855.00;;;21.68;70.65
69455;BME280;56660;51.986;5.930;2022-08-01T09:32:43;101848.78;;;21.74;70.38
69455;BME280;56660;51.986;5.930;2022-08-01T09:35:25;101861.63;;;21.80;70.38
69455;BME280;56660;51.986;5.930;2022-08-01T09:38:11;101859.56;;;21.82;70.12
69455;BME280;56660;51.986;5.930;2022-08-01T09:40:48;101869.41;;;21.83;70.10
69455;BME280;56660;51.986;5.930;2022-08-01T09:43:17;101867.06;;;21.80;69.71
69455;BME280;56660;51.986;5.930;2022-08-01T09:45:43;101869.34;;;21.76;69.91
69455;BME280;56660;51.986;5.930;2022-08-01T09:48:09;101869.91;;;21.72;69.86
69455;BME280;56660;51.986;5.930;2022-08-01T09:50:39;101871.34;;;21.68;69.54
69455;BME280;56660;51.986;5.930;2022-08-01T09:53:07;101876.44;;;21.56;70.09
69455;BME280;56660;51.986;5.930;2022-08-01T09:55:32;101876.63;;;21.55;70.61
69455;BME280;56660;51.986;5.930;2022-08-01T09:57:58;101886.50;;;21.56;70.34
69455;BME280;56660;51.986;5.930;2022-08-01T10:00:24;101884.22;;;21.59;70.16
69455;BME280;56660;51.986;5.930;2022-08-01T10:02:49;101885.72;;;21.62;70.06
69455;BME280;56660;51.986;5.930;2022-08-01T10:05:15;101886.38;;;21.64;69.75
69455;BME280;56660;51.986;5.930;2022-08-01T10:07:55;101892.34;;;21.74;70.05
69455;BME280;56660;51.986;5.930;2022-08-01T10:10:23;101887.44;;;21.84;69.97
69455;BME280;56660;51.986;5.930;2022-08-01T10:12:51;101889.91;;;22.00;70.27
69455;BME280;56660;51.986;5.930;2022-08-01T10:15:18;101891.72;;;22.14;70.13
69455;BME280;56660;51.986;5.930;2022-08-01T10:17:48;101882.44;;;22.30;69.94
69455;BME280;56660;51.986;5.930;2022-08-01T10:20:19;101890.06;;;22.41;69.98
69455;BME280;56660;51.986;5.930;2022-08-01T10:22:49;101891.16;;;22.47;69.63
69455;BME280;56660;51.986;5.930;2022-08-01T10:25:18;101893.94;;;22.54;69.23
69455;BME280;56660;51.986;5.930;2022-08-01T10:27:48;101892.25;;;22.53;68.94
69455;BME280;56660;51.986;5.930;2022-08-01T10:30:15;101891.63;;;22.51;69.24
69455;BME280;56660;51.986;5.930;2022-08-01T10:32:41;101888.25;;;22.49;69.33
69455;BME280;56660;51.986;5.930;2022-08-01T10:35:11;101898.09;;;22.50;69.33
69455;BME280;56660;51.986;5.930;2022-08-01T10:37:36;101893.50;;;22.50;68.97
69455;BME280;56660;51.986;5.930;2022-08-01T10:40:03;101899.78;;;22.51;68.76
69455;BME280;56660;51.986;5.930;2022-08-01T10:42:31;101896.88;;;22.52;69.05
69455;BME280;56660;51.986;5.930;2022-08-01T10:45:00;101895.22;;;22.58;68.68
69455;BME280;56660;51.986;5.930;2022-08-01T10:47:40;101895.22;;;22.58;68.75
69455;BME280;56660;51.986;5.930;2022-08-01T10:50:13;101897.97;;;22.58;69.20
69455;BME280;56660;51.986;5.930;2022-08-01T10:53:03;101903.22;;;22.59;69.65
69455;BME280;56660;51.986;5.930;2022-08-01T10:55:45;101897.38;;;22.62;68.63
69455;BME280;56660;51.986;5.930;2022-08-01T10:58:20;101891.50;;;22.65;69.04
69455;BME280;56660;51.986;5.930;2022-08-01T11:00:48;101895.91;;;22.66;68.72
69455;BME280;56660;51.986;5.930;2022-08-01T11:03:14;101893.41;;;22.65;68.63
69455;BME280;56660;51.986;5.930;2022-08-01T11:05:42;101895.28;;;22.64;67.92
69455;BME280;56660;51.986;5.930;2022-08-01T11:08:10;101896.97;;;22.65;67.88
69455;BME280;56660;51.986;5.930;2022-08-01T11:10:46;101897.00;;;22.72;68.04
69455;BME280;56660;51.986;5.930;2022-08-01T11:13:14;101893.81;;;22.90;68.54
69455;BME280;56660;51.986;5.930;2022-08-01T11:15:40;101893.94;;;23.16;68.16
69455;BME280;56660;51.986;5.930;2022-08-01T11:18:31;101889.41;;;23.36;68.44
69455;BME280;56660;51.986;5.930;2022-08-01T11:20:59;101880.47;;;23.49;68.06
69455;BME280;56660;51.986;5.930;2022-08-01T11:23:26;101887.03;;;23.61;67.66
69455;BME280;56660;51.986;5.930;2022-08-01T11:26:22;101882.22;;;23.70;67.62
69455;BME280;56660;51.986;5.930;2022-08-01T11:29:11;101879.31;;;23.78;67.01
69455;BME280;56660;51.986;5.930;2022-08-01T11:31:42;101879.72;;;23.82;66.83
69455;BME280;56660;51.986;5.930;2022-08-01T11:34:10;101882.88;;;23.79;66.50
69455;BME280;56660;51.986;5.930;2022-08-01T11:36:36;101896.31;;;23.80;66.73
69455;BME280;56660;51.986;5.930;2022-08-01T11:41:47;101884.16;;;23.96;66.44
69455;BME280;56660;51.986;5.930;2022-08-01T11:44:15;101888.16;;;24.07;66.28
69455;BME280;56660;51.986;5.930;2022-08-01T11:47:01;101889.22;;;24.19;65.21
69455;BME280;56660;51.986;5.930;2022-08-01T11:52:31;101888.59;;;24.23;65.22
69455;BME280;56660;51.986;5.930;2022-08-01T11:54:58;101894.31;;;24.35;64.96
69455;BME280;56660;51.986;5.930;2022-08-01T11:57:33;101890.72;;;24.48;64.46
69455;BME280;56660;51.986;5.930;2022-08-01T11:59:59;101890.94;;;24.53;64.18
69455;BME280;56660;51.986;5.930;2022-08-01T12:02:30;101891.56;;;24.61;63.69
69455;BME280;56660;51.986;5.930;2022-08-01T12:04:58;101890.06;;;24.72;63.63
69455;BME280;56660;51.986;5.930;2022-08-01T12:07:29;101885.22;;;24.74;62.66
69455;BME280;56660;51.986;5.930;2022-08-01T12:09:58;101886.69;;;24.77;62.08
69455;BME280;56660;51.986;5.930;2022-08-01T12:12:26;101886.25;;;24.80;61.71
69455;BME280;56660;51.986;5.930;2022-08-01T12:14:54;101882.66;;;24.86;62.20
69455;BME280;56660;51.986;5.930;2022-08-01T12:17:34;101888.13;;;24.99;62.62
69455;BME280;56660;51.986;5.930;2022-08-01T12:20:05;101894.84;;;25.10;62.09
69455;BME280;56660;51.986;5.930;2022-08-01T12:22:34;101894.19;;;25.14;62.23
69455;BME280;56660;51.986;5.930;2022-08-01T12:25:11;101888.28;;;25.17;61.07
69455;BME280;56660;51.986;5.930;2022-08-01T12:27:39;101901.78;;;25.12;61.39
69455;BME280;56660;51.986;5.930;2022-08-01T12:30:12;101891.28;;;24.96;60.74
69455;BME280;56660;51.986;5.930;2022-08-01T12:32:45;101900.13;;;24.85;60.85
69455;BME280;56660;51.986;5.930;2022-08-01T12:35:15;101901.03;;;24.65;60.29
69455;BME280;56660;51.986;5.930;2022-08-01T12:37:44;101907.97;;;24.48;60.29
69455;BME280;56660;51.986;5.930;2022-08-01T12:40:14;101897.03;;;24.35;60.48
69455;BME280;56660;51.986;5.930;2022-08-01T12:42:42;101900.00;;;24.27;59.94
69455;BME280;56660;51.986;5.930;2022-08-01T12:45:12;101906.09;;;24.29;59.98
69455;BME280;56660;51.986;5.930;2022-08-01T12:47:42;101899.56;;;24.36;60.01
69455;BME280;56660;51.986;5.930;2022-08-01T12:50:16;101913.22;;;24.50;59.69
69455;BME280;56660;51.986;5.930;2022-08-01T12:52:43;101898.72;;;24.62;59.05
69455;BME280;56660;51.986;5.930;2022-08-01T12:55:12;101901.44;;;24.69;58.63
69455;BME280;56660;51.986;5.930;2022-08-01T12:57:42;101899.53;;;24.63;58.72
69455;BME280;56660;51.986;5.930;2022-08-01T13:00:21;101898.94;;;24.54;57.64
69455;BME280;56660;51.986;5.930;2022-08-01T13:03:00;101901.47;;;24.43;57.47
69455;BME280;56660;51.986;5.930;2022-08-01T13:05:40;101902.09;;;24.38;57.82
69455;BME280;56660;51.986;5.930;2022-08-01T13:08:10;101900.41;;;24.37;58.49
69455;BME280;56660;51.986;5.930;2022-08-01T13:10:36;101900.63;;;24.42;58.35
69455;BME280;56660;51.986;5.930;2022-08-01T13:13:01;101894.31;;;24.42;57.39
69455;BME280;56660;51.986;5.930;2022-08-01T13:15:29;101897.47;;;24.45;57.65
69455;BME280;56660;51.986;5.930;2022-08-01T13:17:56;101893.47;;;24.48;56.17
69455;BME280;56660;51.986;5.930;2022-08-01T13:20:24;101900.41;;;24.50;57.13
69455;BME280;56660;51.986;5.930;2022-08-01T13:23:13;101893.25;;;24.56;57.15